sensor_id;sensor_type;location;lat;lon;timestamp;P1;durP1;ratioP1;P2;durP2;ratioP2
23754;SDS011;12057;52.042;6.830;2022-10-18T00:02:52;74.57;;;31.50;;
23754;SDS011;12057;52.042;6.830;2022-10-18T00:08:02;75.75;;;30.00;;
23754;SDS011;12057;52.042;6.830;2022-10-18T00:13:11;77.35;;;33.35;;
23754;SDS011;12057;52.042;6.830;2022-10-18T00:18:16;79.05;;;34.80;;
23754;SDS011;12057;52.042;6.830;2022-10-18T00:23:27;141.43;;;39.65;;
23754;SDS011;12057;52.042;6.830;2022-10-18T00:28:37;87.13;;;36.20;;
23754;SDS011;12057;52.042;6.830;2022-10-18T00:33:43;105.82;;;37.70;;
23754;SDS011;12057;52.042;6.830;2022-10-18T00:38:52;118.65;;;38.40;;
23754;SDS011;12057;52.042;6.830;2022-10-18T00:44:03;77.10;;;33.10;;
23754;SDS011;12057;52.042;6.830;2022-10-18T00:49:29;76.80;;;33.13;;
23754;SDS011;12057;52.042;6.830;2022-10-18T00:54:58;69.03;;;29.90;;
23754;SDS011;12057;52.042;6.830;2022-10-18T01:00:01;71.35;;;31.55;;
23754;SDS011;12057;52.042;6.830;2022-10-18T01:05:10;66.80;;;31.40;;
23754;SDS011;12057;52.042;6.830;2022-10-18T01:32:05;60.55;;;27.70;;
23754;SDS011;12057;52.042;6.830;2022-10-18T01:37:22;58.80;;;27.15;;
23754;SDS011;12057;52.042;6.830;2022-10-18T01:42:28;66.60;;;28.33;;
23754;SDS011;12057;52.042;6.830;2022-10-18T01:47:39;59.10;;;27.05;;
23754;SDS011;12057;52.042;6.830;2022-10-18T01:52:58;54.85;;;26.80;;
23754;SDS011;12057;52.042;6.830;2022-10-18T01:58:03;58.97;;;26.85;;
23754;SDS011;12057;52.042;6.830;2022-10-18T02:03:24;67.28;;;27.65;;
23754;SDS011;12057;52.042;6.830;2022-10-18T02:08:41;59.80;;;27.58;;
23754;SDS011;12057;52.042;6.830;2022-10-18T02:13:51;49.15;;;23.35;;
23754;SDS011;12057;52.042;6.830;2022-10-18T02:19:09;61.45;;;25.55;;
23754;SDS011;12057;52.042;6.830;2022-10-18T02:24:20;52.15;;;25.20;;
23754;SDS011;12057;52.042;6.830;2022-10-18T02:29:34;55.13;;;25.80;;
23754;SDS011;12057;52.042;6.830;2022-10-18T02:34:39;56.65;;;26.67;;
23754;SDS011;12057;52.042;6.830;2022-10-18T02:40:02;62.53;;;26.30;;
23754;SDS011;12057;52.042;6.830;2022-10-18T02:45:09;61.63;;;26.05;;
23754;SDS011;12057;52.042;6.830;2022-10-18T02:50:20;51.80;;;24.95;;
23754;SDS011;12057;52.042;6.830;2022-10-18T02:55:34;56.75;;;26.25;;
23754;SDS011;12057;52.042;6.830;2022-10-18T03:10:48;54.90;;;24.33;;
23754;SDS011;12057;52.042;6.830;2022-10-18T03:15:52;74.55;;;31.38;;
23754;SDS011;12057;52.042;6.830;2022-10-18T03:25:57;74.22;;;29.42;;
23754;SDS011;12057;52.042;6.830;2022-10-18T03:31:03;74.43;;;30.88;;
23754;SDS011;12057;52.042;6.830;2022-10-18T03:36:09;72.18;;;30.25;;
23754;SDS011;12057;52.042;6.830;2022-10-18T03:41:15;102.85;;;34.10;;
23754;SDS011;12057;52.042;6.830;2022-10-18T03:46:17;151.70;;;38.53;;
23754;SDS011;12057;52.042;6.830;2022-10-18T03:51:21;88.68;;;34.25;;
23754;SDS011;12057;52.042;6.830;2022-10-18T03:56:37;100.03;;;39.08;;
23754;SDS011;12057;52.042;6.830;2022-10-18T04:01:49;140.60;;;38.50;;
23754;SDS011;12057;52.042;6.830;2022-10-18T04:06:57;79.70;;;33.13;;
23754;SDS011;12057;52.042;6.830;2022-10-18T04:12:03;84.32;;;34.95;;
23754;SDS011;12057;52.042;6.830;2022-10-18T04:17:07;112.07;;;36.50;;
23754;SDS011;12057;52.042;6.830;2022-10-18T04:22:21;105.72;;;37.75;;
23754;SDS011;12057;52.042;6.830;2022-10-18T04:27:26;82.18;;;35.50;;
23754;SDS011;12057;52.042;6.830;2022-10-18T04:32:31;77.97;;;33.70;;
23754;SDS011;12057;52.042;6.830;2022-10-18T04:37:39;70.25;;;30.50;;
23754;SDS011;12057;52.042;6.830;2022-10-18T04:42:46;73.53;;;32.83;;
23754;SDS011;12057;52.042;6.830;2022-10-18T04:47:50;78.90;;;35.28;;
23754;SDS011;12057;52.042;6.830;2022-10-18T04:52:55;75.88;;;33.28;;
23754;SDS011;12057;52.042;6.830;2022-10-18T04:58:08;75.70;;;33.50;;
23754;SDS011;12057;52.042;6.830;2022-10-18T05:03:15;77.93;;;34.90;;
23754;SDS011;12057;52.042;6.830;2022-10-18T05:08:21;194.45;;;40.67;;
23754;SDS011;12057;52.042;6.830;2022-10-18T05:13:34;125.18;;;36.83;;
23754;SDS011;12057;52.042;6.830;2022-10-18T05:18:53;85.55;;;34.95;;
23754;SDS011;12057;52.042;6.830;2022-10-18T05:24:03;77.28;;;33.72;;
23754;SDS011;12057;52.042;6.830;2022-10-18T05:29:23;73.05;;;33.05;;
23754;SDS011;12057;52.042;6.830;2022-10-18T05:34:34;196.95;;;39.80;;
23754;SDS011;12057;52.042;6.830;2022-10-18T05:39:39;79.45;;;34.88;;
23754;SDS011;12057;52.042;6.830;2022-10-18T05:44:44;81.70;;;34.30;;
23754;SDS011;12057;52.042;6.830;2022-10-18T05:49:47;114.97;;;37.40;;
23754;SDS011;12057;52.042;6.830;2022-10-18T05:54:52;103.38;;;37.33;;
23754;SDS011;12057;52.042;6.830;2022-10-18T05:59:55;179.85;;;40.58;;
23754;SDS011;12057;52.042;6.830;2022-10-18T06:09:57;94.35;;;35.70;;
23754;SDS011;12057;52.042;6.830;2022-10-18T06:14:58;88.33;;;36.37;;
23754;SDS011;12057;52.042;6.830;2022-10-18T06:20:03;86.88;;;35.75;;
23754;SDS011;12057;52.042;6.830;2022-10-18T06:25:09;124.88;;;37.38;;
23754;SDS011;12057;52.042;6.830;2022-10-18T06:30:17;118.47;;;39.42;;
23754;SDS011;12057;52.042;6.830;2022-10-18T06:35:21;99.45;;;35.28;;
23754;SDS011;12057;52.042;6.830;2022-10-18T06:40:25;121.43;;;38.72;;
23754;SDS011;12057;52.042;6.830;2022-10-18T06:45:32;121.57;;;36.67;;
23754;SDS011;12057;52.042;6.830;2022-10-18T06:50:33;117.70;;;36.63;;
23754;SDS011;12057;52.042;6.830;2022-10-18T06:55:38;112.03;;;37.20;;
23754;SDS011;12057;52.042;6.830;2022-10-18T07:00:41;104.65;;;37.85;;
23754;SDS011;12057;52.042;6.830;2022-10-18T07:05:51;95.90;;;36.40;;
23754;SDS011;12057;52.042;6.830;2022-10-18T07:10:59;125.00;;;38.55;;
23754;SDS011;12057;52.042;6.830;2022-10-18T07:16:04;122.85;;;39.47;;
23754;SDS011;12057;52.042;6.830;2022-10-18T07:21:08;113.07;;;33.95;;
23754;SDS011;12057;52.042;6.830;2022-10-18T07:31:18;113.88;;;34.45;;
23754;SDS011;12057;52.042;6.830;2022-10-18T07:36:23;119.10;;;32.65;;
23754;SDS011;12057;52.042;6.830;2022-10-18T07:41:26;110.03;;;30.45;;
23754;SDS011;12057;52.042;6.830;2022-10-18T07:46:28;101.68;;;29.60;;
23754;SDS011;12057;52.042;6.830;2022-10-18T07:51:30;109.90;;;30.52;;
23754;SDS011;12057;52.042;6.830;2022-10-18T07:56:45;107.15;;;29.10;;
23754;SDS011;12057;52.042;6.830;2022-10-18T08:01:51;94.07;;;28.00;;
23754;SDS011;12057;52.042;6.830;2022-10-18T08:07:03;98.20;;;27.57;;
23754;SDS011;12057;52.042;6.830;2022-10-18T08:12:13;76.18;;;24.75;;
23754;SDS011;12057;52.042;6.830;2022-10-18T08:17:24;78.93;;;27.75;;
23754;SDS011;12057;52.042;6.830;2022-10-18T08:22:32;66.50;;;23.27;;
23754;SDS011;12057;52.042;6.830;2022-10-18T08:32:39;77.38;;;25.58;;
23754;SDS011;12057;52.042;6.830;2022-10-18T08:37:40;70.70;;;23.10;;
23754;SDS011;12057;52.042;6.830;2022-10-18T08:54:04;49.25;;;20.00;;
23754;SDS011;12057;52.042;6.830;2022-10-18T08:59:23;55.38;;;21.23;;
23754;SDS011;12057;52.042;6.830;2022-10-18T09:09:53;48.15;;;18.20;;
23754;SDS011;12057;52.042;6.830;2022-10-18T09:15:35;41.55;;;16.92;;
23754;SDS011;12057;52.042;6.830;2022-10-18T09:20:48;47.53;;;15.75;;
23754;SDS011;12057;52.042;6.830;2022-10-18T09:26:21;40.90;;;15.23;;
23754;SDS011;12057;52.042;6.830;2022-10-18T09:36:50;53.28;;;14.50;;
23754;SDS011;12057;52.042;6.830;2022-10-18T09:41:55;43.30;;;14.15;;
23754;SDS011;12057;52.042;6.830;2022-10-18T09:52:18;32.78;;;10.82;;
23754;SDS011;12057;52.042;6.830;2022-10-18T09:57:52;34.33;;;11.40;;
23754;SDS011;12057;52.042;6.830;2022-10-18T10:03:12;41.50;;;12.77;;
23754;SDS011;12057;52.042;6.830;2022-10-18T10:08:19;34.65;;;11.07;;
23754;SDS011;12057;52.042;6.830;2022-10-18T10:13:36;24.08;;;5.10;;
23754;SDS011;12057;52.042;6.830;2022-10-18T10:18:36;26.67;;;5.90;;
23754;SDS011;12057;52.042;6.830;2022-10-18T10:23:45;19.73;;;4.38;;
23754;SDS011;12057;52.042;6.830;2022-10-18T10:28:53;16.17;;;4.93;;
23754;SDS011;12057;52.042;6.830;2022-10-18T10:44:22;21.35;;;3.85;;
23754;SDS011;12057;52.042;6.830;2022-10-18T10:54:42;17.92;;;3.08;;
23754;SDS011;12057;52.042;6.830;2022-10-18T10:59:48;14.68;;;2.58;;
23754;SDS011;12057;52.042;6.830;2022-10-18T11:04:53;26.15;;;3.08;;
23754;SDS011;12057;52.042;6.830;2022-10-18T11:25:24;9.18;;;2.35;;
23754;SDS011;12057;52.042;6.830;2022-10-18T11:35:51;12.52;;;2.08;;
23754;SDS011;12057;52.042;6.830;2022-10-18T11:57:04;14.80;;;2.42;;
23754;SDS011;12057;52.042;6.830;2022-10-18T12:07:46;19.00;;;1.95;;
23754;SDS011;12057;52.042;6.830;2022-10-18T12:13:02;20.65;;;2.13;;
23754;SDS011;12057;52.042;6.830;2022-10-18T12:18:09;10.93;;;1.65;;
23754;SDS011;12057;52.042;6.830;2022-10-18T12:34:19;11.48;;;1.80;;
23754;SDS011;12057;52.042;6.830;2022-10-18T12:39:29;14.05;;;2.42;;
23754;SDS011;12057;52.042;6.830;2022-10-18T12:44:35;12.25;;;1.90;;
23754;SDS011;12057;52.042;6.830;2022-10-18T12:49:39;9.50;;;2.27;;
23754;SDS011;12057;52.042;6.830;2022-10-18T12:54:40;16.27;;;1.88;;
23754;SDS011;12057;52.042;6.830;2022-10-18T12:59:59;16.42;;;1.85;;
23754;SDS011;12057;52.042;6.830;2022-10-18T13:05:00;13.67;;;1.77;;
23754;SDS011;12057;52.042;6.830;2022-10-18T13:10:56;15.20;;;2.53;;
23754;SDS011;12057;52.042;6.830;2022-10-18T13:26:37;16.60;;;1.83;;
23754;SDS011;12057;52.042;6.830;2022-10-18T13:42:30;10.88;;;1.20;;
23754;SDS011;12057;52.042;6.830;2022-10-18T13:47:35;8.23;;;1.40;;
23754;SDS011;12057;52.042;6.830;2022-10-18T14:09:18;17.30;;;1.13;;
23754;SDS011;12057;52.042;6.830;2022-10-18T14:14:29;4.40;;;1.00;;
23754;SDS011;12057;52.042;6.830;2022-10-18T14:19:38;6.00;;;1.40;;
23754;SDS011;12057;52.042;6.830;2022-10-18T14:24:43;9.23;;;1.40;;
23754;SDS011;12057;52.042;6.830;2022-10-18T14:30:05;12.00;;;2.30;;
23754;SDS011;12057;52.042;6.830;2022-10-18T14:35:23;6.90;;;1.38;;
23754;SDS011;12057;52.042;6.830;2022-10-18T14:40:36;17.08;;;3.45;;
23754;SDS011;12057;52.042;6.830;2022-10-18T14:45:39;11.10;;;1.50;;
23754;SDS011;12057;52.042;6.830;2022-10-18T14:50:42;11.25;;;1.58;;
23754;SDS011;12057;52.042;6.830;2022-10-18T14:55:51;5.18;;;1.02;;
23754;SDS011;12057;52.042;6.830;2022-10-18T15:00:54;18.77;;;1.52;;
23754;SDS011;12057;52.042;6.830;2022-10-18T15:06:00;9.93;;;0.93;;
23754;SDS011;12057;52.042;6.830;2022-10-18T15:11:03;11.95;;;1.73;;
23754;SDS011;12057;52.042;6.830;2022-10-18T15:16:05;9.25;;;1.65;;
23754;SDS011;12057;52.042;6.830;2022-10-18T15:21:19;9.45;;;1.73;;
23754;SDS011;12057;52.042;6.830;2022-10-18T15:26:26;6.30;;;1.00;;
23754;SDS011;12057;52.042;6.830;2022-10-18T15:31:32;9.07;;;1.40;;
23754;SDS011;12057;52.042;6.830;2022-10-18T15:36:35;6.45;;;1.30;;
23754;SDS011;12057;52.042;6.830;2022-10-18T15:46:52;14.32;;;2.25;;
23754;SDS011;12057;52.042;6.830;2022-10-18T15:52:27;14.48;;;1.83;;
23754;SDS011;12057;52.042;6.830;2022-10-18T15:57:31;12.27;;;1.63;;
23754;SDS011;12057;52.042;6.830;2022-10-18T16:02:32;9.70;;;1.40;;
23754;SDS011;12057;52.042;6.830;2022-10-18T16:07:33;15.20;;;2.50;;
23754;SDS011;12057;52.042;6.830;2022-10-18T16:12:34;8.03;;;1.77;;
23754;SDS011;12057;52.042;6.830;2022-10-18T16:17:34;10.47;;;2.73;;
23754;SDS011;12057;52.042;6.830;2022-10-18T16:22:35;15.10;;;2.47;;
23754;SDS011;12057;52.042;6.830;2022-10-18T16:27:36;13.90;;;4.47;;
23754;SDS011;12057;52.042;6.830;2022-10-18T16:32:37;15.03;;;5.07;;
23754;SDS011;12057;52.042;6.830;2022-10-18T16:37:38;19.13;;;5.53;;
23754;SDS011;12057;52.042;6.830;2022-10-18T16:42:39;14.85;;;3.38;;
23754;SDS011;12057;52.042;6.830;2022-10-18T16:47:39;11.27;;;2.60;;
23754;SDS011;12057;52.042;6.830;2022-10-18T16:52:40;11.93;;;3.30;;
23754;SDS011;12057;52.042;6.830;2022-10-18T16:57:45;18.85;;;3.75;;
23754;SDS011;12057;52.042;6.830;2022-10-18T17:02:46;13.95;;;3.72;;
23754;SDS011;12057;52.042;6.830;2022-10-18T17:07:48;18.67;;;4.35;;
23754;SDS011;12057;52.042;6.830;2022-10-18T17:12:49;20.67;;;7.07;;
23754;SDS011;12057;52.042;6.830;2022-10-18T17:17:51;17.00;;;4.97;;
23754;SDS011;12057;52.042;6.830;2022-10-18T17:22:52;11.97;;;4.93;;
23754;SDS011;12057;52.042;6.830;2022-10-18T17:27:53;19.10;;;4.55;;
23754;SDS011;12057;52.042;6.830;2022-10-18T17:32:54;19.57;;;3.23;;
23754;SDS011;12057;52.042;6.830;2022-10-18T17:42:56;22.63;;;6.03;;
23754;SDS011;12057;52.042;6.830;2022-10-18T17:52:58;22.48;;;5.38;;
23754;SDS011;12057;52.042;6.830;2022-10-18T17:57:59;29.07;;;6.13;;
23754;SDS011;12057;52.042;6.830;2022-10-18T18:03:00;21.37;;;6.50;;
23754;SDS011;12057;52.042;6.830;2022-10-18T18:08:01;23.75;;;5.70;;
23754;SDS011;12057;52.042;6.830;2022-10-18T18:13:02;23.00;;;4.47;;
23754;SDS011;12057;52.042;6.830;2022-10-18T18:18:03;17.97;;;3.40;;
23754;SDS011;12057;52.042;6.830;2022-10-18T18:23:03;12.27;;;3.27;;
23754;SDS011;12057;52.042;6.830;2022-10-18T18:28:04;15.67;;;2.93;;
23754;SDS011;12057;52.042;6.830;2022-10-18T18:33:05;15.90;;;3.10;;
23754;SDS011;12057;52.042;6.830;2022-10-18T18:38:06;14.80;;;2.23;;
23754;SDS011;12057;52.042;6.830;2022-10-18T18:43:08;12.90;;;2.58;;
23754;SDS011;12057;52.042;6.830;2022-10-18T18:48:08;13.50;;;3.07;;
23754;SDS011;12057;52.042;6.830;2022-10-18T18:53:09;11.20;;;2.50;;
23754;SDS011;12057;52.042;6.830;2022-10-18T18:58:10;27.40;;;4.77;;
23754;SDS011;12057;52.042;6.830;2022-10-18T19:03:11;26.65;;;3.88;;
23754;SDS011;12057;52.042;6.830;2022-10-18T19:08:12;20.63;;;4.53;;
23754;SDS011;12057;52.042;6.830;2022-10-18T19:13:12;19.90;;;4.67;;
23754;SDS011;12057;52.042;6.830;2022-10-18T19:18:14;19.75;;;4.40;;
23754;SDS011;12057;52.042;6.830;2022-10-18T19:23:15;20.70;;;5.30;;
23754;SDS011;12057;52.042;6.830;2022-10-18T19:28:15;16.20;;;4.30;;
23754;SDS011;12057;52.042;6.830;2022-10-18T19:33:16;16.87;;;4.37;;
23754;SDS011;12057;52.042;6.830;2022-10-18T19:38:21;20.35;;;4.50;;
23754;SDS011;12057;52.042;6.830;2022-10-18T19:43:21;21.93;;;4.20;;
23754;SDS011;12057;52.042;6.830;2022-10-18T19:48:22;14.77;;;4.30;;
23754;SDS011;12057;52.042;6.830;2022-10-18T19:53:23;19.60;;;3.97;;
23754;SDS011;12057;52.042;6.830;2022-10-18T19:58:24;9.93;;;4.10;;
23754;SDS011;12057;52.042;6.830;2022-10-18T20:03:25;12.57;;;4.32;;
23754;SDS011;12057;52.042;6.830;2022-10-18T20:08:30;12.48;;;4.25;;
23754;SDS011;12057;52.042;6.830;2022-10-18T20:13:33;23.02;;;4.60;;
23754;SDS011;12057;52.042;6.830;2022-10-18T20:18:34;34.67;;;6.07;;
23754;SDS011;12057;52.042;6.830;2022-10-18T20:23:36;17.53;;;4.30;;
23754;SDS011;12057;52.042;6.830;2022-10-18T20:28:38;22.58;;;5.10;;
23754;SDS011;12057;52.042;6.830;2022-10-18T20:33:39;17.73;;;4.47;;
23754;SDS011;12057;52.042;6.830;2022-10-18T20:38:44;33.03;;;12.55;;
23754;SDS011;12057;52.042;6.830;2022-10-18T20:43:50;33.85;;;10.88;;
23754;SDS011;12057;52.042;6.830;2022-10-18T20:48:56;23.90;;;8.27;;
23754;SDS011;12057;52.042;6.830;2022-10-18T20:54:01;27.83;;;8.73;;
23754;SDS011;12057;52.042;6.830;2022-10-18T20:59:06;23.50;;;7.60;;
23754;SDS011;12057;52.042;6.830;2022-10-18T21:04:10;26.33;;;7.50;;
23754;SDS011;12057;52.042;6.830;2022-10-18T21:09:19;25.75;;;7.20;;
23754;SDS011;12057;52.042;6.830;2022-10-18T21:14:29;29.38;;;7.30;;
23754;SDS011;12057;52.042;6.830;2022-10-18T21:19:37;30.58;;;7.20;;
23754;SDS011;12057;52.042;6.830;2022-10-18T21:24:41;21.23;;;6.50;;
23754;SDS011;12057;52.042;6.830;2022-10-18T21:29:44;20.35;;;5.82;;
23754;SDS011;12057;52.042;6.830;2022-10-18T21:34:44;25.83;;;6.27;;
23754;SDS011;12057;52.042;6.830;2022-10-18T21:39:45;18.57;;;5.47;;
23754;SDS011;12057;52.042;6.830;2022-10-18T21:44:46;45.47;;;13.03;;
23754;SDS011;12057;52.042;6.830;2022-10-18T21:49:47;20.13;;;6.88;;
23754;SDS011;12057;52.042;6.830;2022-10-18T21:54:48;29.47;;;6.03;;
23754;SDS011;12057;52.042;6.830;2022-10-18T21:59:49;26.47;;;5.10;;
23754;SDS011;12057;52.042;6.830;2022-10-18T22:04:49;22.77;;;4.03;;
23754;SDS011;12057;52.042;6.830;2022-10-18T22:09:50;10.93;;;4.27;;
23754;SDS011;12057;52.042;6.830;2022-10-18T22:14:51;22.87;;;4.33;;
23754;SDS011;12057;52.042;6.830;2022-10-18T22:19:52;30.60;;;5.67;;
23754;SDS011;12057;52.042;6.830;2022-10-18T22:24:52;42.17;;;5.07;;
23754;SDS011;12057;52.042;6.830;2022-10-18T22:29:53;13.10;;;5.63;;
23754;SDS011;12057;52.042;6.830;2022-10-18T22:34:54;29.20;;;5.87;;
23754;SDS011;12057;52.042;6.830;2022-10-18T22:39:55;24.77;;;6.80;;
23754;SDS011;12057;52.042;6.830;2022-10-18T22:44:55;19.90;;;7.30;;
23754;SDS011;12057;52.042;6.830;2022-10-18T22:49:56;24.47;;;6.60;;
23754;SDS011;12057;52.042;6.830;2022-10-18T22:54:57;24.33;;;6.00;;
23754;SDS011;12057;52.042;6.830;2022-10-18T22:59:58;23.70;;;6.20;;
23754;SDS011;12057;52.042;6.830;2022-10-18T23:04:58;18.07;;;5.03;;
23754;SDS011;12057;52.042;6.830;2022-10-18T23:09:59;17.87;;;5.10;;
23754;SDS011;12057;52.042;6.830;2022-10-18T23:15:00;15.93;;;5.07;;
23754;SDS011;12057;52.042;6.830;2022-10-18T23:20:01;10.83;;;5.07;;
23754;SDS011;12057;52.042;6.830;2022-10-18T23:30:03;15.98;;;5.38;;
23754;SDS011;12057;52.042;6.830;2022-10-18T23:35:05;19.58;;;4.97;;
23754;SDS011;12057;52.042;6.830;2022-10-18T23:40:06;18.73;;;4.93;;
23754;SDS011;12057;52.042;6.830;2022-10-18T23:50:08;36.50;;;5.70;;
23754;SDS011;12057;52.042;6.830;2022-10-18T23:55:09;19.60;;;4.83;;
